SLSB/SRJ METAR and TAF weather

Enter ICAO airport designator
Station Type Date Time Source
SLSB METAR 2021/02/27 21:00 UTC NOAA

SLSB 272100Z 00000KT 9999 FEW020 33/25 Q1005


Station Type Date Time Source
SLSB Decoded METAR 2021/02/27 21:00 UTC NOAA

San Borja, Bolivia (SLSB) 14-52S 066-52W
Feb 27, 2021 - 04:00 PM EST / 2021.02.27 2100 UTC
Wind: Calm:0
Visibility: greater than 7 mile(s):0
Sky conditions: mostly clear
Temperature: 91 F (33 C)
Heat index: 103.5 F (39.7 C):1
Dew Point: 77 F (25 C)
Relative Humidity: 62%
Pressure (altimeter): 29.68 in. Hg (1005 hPa)
ob: SLSB 272100Z 00000KT 9999 FEW020 33/25 Q1005
cycle: 21

Station Type Date Time Source
SLSB TAF UTC NOAA

Error!

Example: see airport list